CheckWX is a tool to help pilots better visualize weather data.  It is not intended as a substitute for an official pre-flight weather briefing.

12:19:10 UTC

I68 METAR
Warren County / John Lane Field Airport
Lebanon, Ohio, USA
Current

24 mins ago

KI68 221155Z AUTO 04004KT 10SM CLR 00/00 A3035 RMK AO1 T00011004 10022 20000
Observed
Feb-22 @ 11:55 UTC
Wind
  • 040° at 4 KTS
Visibility
10 SM
Flight Rules
VFR
Cloud Levels
  • Clear skies
Temperature
C / 32°F
Dewpoint
-0°C / 32°F
Humidity
100%
Altimeter
30.35" Hg
Pressure
1027.82 hPa
Previous

44 mins ago

KI68 221135Z AUTO 03005KT 10SM CLR A3036 RMK AO1
Observed
Feb-22 @ 11:35 UTC
Wind
  • 030° at 5 KTS
Visibility
10 SM
Flight Rules
VFR
Cloud Levels
  • Clear skies
Altimeter
30.36" Hg
Pressure
1028.12 hPa
Previous

1 hour ago

KI68 221115Z AUTO 02004KT 10SM CLR 00/00 A3036 RMK AO1 T00011003
Observed
Feb-22 @ 11:15 UTC
Wind
  • 020° at 4 KTS
Visibility
10 SM
Flight Rules
VFR
Cloud Levels
  • Clear skies
Temperature
C / 32°F
Dewpoint
-0°C / 32°F
Humidity
100%
Altimeter
30.36" Hg
Pressure
1028.12 hPa